createdAt,value
2023-04-10T00:00:41.654Z,99760.44
2023-04-10T00:03:14.932Z,99762.16
2023-04-10T00:05:49.718Z,99758.41
2023-04-10T00:08:23.053Z,99765.28
2023-04-10T00:10:57.126Z,99762.50
2023-04-10T00:13:31.970Z,99766.66
2023-04-10T00:16:05.563Z,99753.69
2023-04-10T00:18:38.753Z,99760.28
2023-04-10T00:21:13.401Z,99760.69
2023-04-10T00:23:46.352Z,99759.66
2023-04-10T00:26:20.941Z,99760.66
2023-04-10T00:28:54.035Z,99751.88
2023-04-10T00:31:27.177Z,99759.13
2023-04-10T00:34:00.235Z,99755.88
2023-04-10T00:36:35.129Z,99749.22
2023-04-10T00:39:08.742Z,99750.38
2023-04-10T00:41:42.132Z,99739.91
2023-04-10T00:44:15.107Z,99746.44
2023-04-10T00:46:48.106Z,99735.59
2023-04-10T00:49:21.977Z,99740.09
2023-04-10T00:51:58.410Z,99739.75
2023-04-10T00:54:33.222Z,99733.91
2023-04-10T00:57:06.290Z,99724.81
2023-04-10T00:59:39.419Z,99728.81
2023-04-10T01:02:13.417Z,99721.81
2023-04-10T01:04:47.010Z,99724.28
2023-04-10T01:07:27.989Z,99723.84
2023-04-10T01:10:06.284Z,99720.09
2023-04-10T01:12:47.015Z,99719.47
2023-04-10T01:15:22.194Z,99723.66
2023-04-10T01:17:58.420Z,99716.59
2023-04-10T01:20:32.794Z,99721.38
2023-04-10T01:23:25.870Z,99718.78
2023-04-10T01:26:01.319Z,99725.47
2023-04-10T01:28:55.351Z,99715.03
2023-04-10T01:31:33.033Z,99722.38
2023-04-10T01:34:08.530Z,99721.94
2023-04-10T01:36:48.492Z,99726.16
2023-04-10T01:39:22.249Z,99723.41
2023-04-10T01:41:56.320Z,99718.53
2023-04-10T01:44:31.225Z,99717.50
2023-04-10T01:47:08.259Z,99714.41
2023-04-10T01:49:44.663Z,99714.84
2023-04-10T01:52:18.553Z,99711.75
2023-04-10T01:54:52.771Z,99721.41
2023-04-10T01:57:25.749Z,99716.91
2023-04-10T01:59:58.748Z,99717.41
2023-04-10T02:02:33.981Z,99716.94
2023-04-10T02:05:07.795Z,99708.31
2023-04-10T02:07:45.536Z,99714.63
2023-04-10T02:10:23.585Z,99713.75
2023-04-10T02:13:08.057Z,99712.44
2023-04-10T02:15:43.859Z,99720.31
2023-04-10T02:18:18.985Z,99716.72
2023-04-10T02:20:52.746Z,99712.91
2023-04-10T02:23:26.370Z,99711.94
2023-04-10T02:25:59.931Z,99706.03
2023-04-10T02:28:32.936Z,99708.09
2023-04-10T02:31:06.004Z,99699.88
2023-04-10T02:33:40.426Z,99691.53
2023-04-10T02:36:14.195Z,99685.78
2023-04-10T02:38:47.911Z,99687.16
2023-04-10T02:41:22.306Z,99689.59
2023-04-10T02:43:55.463Z,99695.28
2023-04-10T02:46:28.652Z,99690.50
2023-04-10T02:49:03.012Z,99690.09
2023-04-10T02:51:37.239Z,99692.38
2023-04-10T02:54:10.399Z,99690.56
2023-04-10T02:56:43.532Z,99686.97
2023-04-10T02:59:16.468Z,99698.44
2023-04-10T03:01:50.710Z,99690.03
2023-04-10T03:04:25.618Z,99695.22
2023-04-10T03:06:59.462Z,99688.75
2023-04-10T03:09:32.710Z,99695.75
2023-04-10T03:12:08.494Z,99683.53
2023-04-10T03:14:41.912Z,99683.97
2023-04-10T03:17:15.322Z,99689.69
2023-04-10T03:19:49.743Z,99691.03
2023-04-10T03:22:23.124Z,99693.72
2023-04-10T03:24:56.957Z,99696.53
2023-04-10T03:27:34.885Z,99688.91
2023-04-10T03:30:08.882Z,99695.84
2023-04-10T03:32:43.067Z,99690.31
2023-04-10T03:35:17.671Z,99685.94
2023-04-10T03:37:50.670Z,99690.78
2023-04-10T03:40:23.897Z,99686.84
2023-04-10T03:43:04.379Z,99683.09
2023-04-10T03:45:45.007Z,99681.69
2023-04-10T03:48:18.059Z,99690.88
2023-04-10T03:50:52.463Z,99690.81
2023-04-10T03:53:25.675Z,99690.03
2023-04-10T03:55:58.697Z,99697.22
2023-04-10T03:58:31.868Z,99697.97
2023-04-10T04:01:06.616Z,99694.81
2023-04-10T04:03:39.910Z,99695.19
2023-04-10T04:06:14.405Z,99698.50
2023-04-10T04:08:47.493Z,99697.72
2023-04-10T04:11:20.434Z,99705.84
2023-04-10T04:13:54.267Z,99703.00
2023-04-10T04:16:27.988Z,99703.00
2023-04-10T04:19:00.956Z,99694.53
2023-04-10T04:21:35.889Z,99707.06
2023-04-10T04:24:19.205Z,99709.06
2023-04-10T04:26:56.524Z,99706.16
2023-04-10T04:29:29.771Z,99705.97
2023-04-10T04:32:02.670Z,99700.16
2023-04-10T04:34:35.913Z,99708.50
2023-04-10T04:37:10.337Z,99708.50
2023-04-10T04:39:43.635Z,99712.66
2023-04-10T04:42:16.823Z,99718.53
2023-04-10T04:44:50.614Z,99714.38
2023-04-10T04:47:24.415Z,99714.25
2023-04-10T04:49:57.447Z,99716.63
2023-04-10T04:52:41.730Z,99717.38
2023-04-10T04:55:15.501Z,99718.50
2023-04-10T04:57:48.727Z,99720.78
2023-04-10T05:00:21.735Z,99717.84
2023-04-10T05:02:54.773Z,99720.06
2023-04-10T05:05:28.060Z,99729.41
2023-04-10T05:08:02.616Z,99735.81
2023-04-10T05:10:35.812Z,99731.19
2023-04-10T05:13:09.344Z,99724.78
2023-04-10T05:15:43.033Z,99734.28
2023-04-10T05:18:19.831Z,99724.47
2023-04-10T05:20:53.227Z,99735.28
2023-04-10T05:23:28.064Z,99734.50
2023-04-10T05:26:01.219Z,99741.25
2023-04-10T05:28:34.153Z,99740.91
2023-04-10T05:31:07.585Z,99734.31
2023-04-10T05:33:40.864Z,99737.09
2023-04-10T05:36:14.417Z,99744.22
2023-04-10T05:38:48.852Z,99734.97
2023-04-10T05:41:21.942Z,99740.59
2023-04-10T05:43:55.188Z,99738.38
2023-04-10T05:46:28.239Z,99729.94
2023-04-10T05:49:01.384Z,99733.13
2023-04-10T05:51:34.869Z,99735.88
2023-04-10T05:54:09.557Z,99730.69
2023-04-10T05:56:42.585Z,99731.78
2023-04-10T05:59:15.539Z,99733.16
2023-04-10T06:01:48.644Z,99730.91
2023-04-10T06:04:22.662Z,99733.38
2023-04-10T06:06:56.473Z,99727.16
2023-04-10T06:09:31.020Z,99721.66
2023-04-10T06:12:04.569Z,99727.09
2023-04-10T06:14:39.483Z,99720.53
2023-04-10T06:17:12.423Z,99723.28
2023-04-10T06:19:45.612Z,99718.06
2023-04-10T06:22:21.398Z,99720.94
2023-04-10T06:24:55.887Z,99720.84
2023-04-10T06:27:30.404Z,99718.31
2023-04-10T06:30:03.465Z,99722.72
2023-04-10T06:32:36.745Z,99725.63
2023-04-10T06:35:10.514Z,99721.31
2023-04-10T06:37:43.648Z,99722.56
2023-04-10T06:40:17.979Z,99727.88
2023-04-10T06:42:51.046Z,99717.13
2023-04-10T06:45:24.314Z,99729.47
2023-04-10T06:47:57.351Z,99725.75
2023-04-10T06:50:33.268Z,99732.41
2023-04-10T06:53:06.545Z,99732.41
2023-04-10T06:55:40.996Z,99731.16
2023-04-10T06:58:14.111Z,99731.91
2023-04-10T07:00:47.265Z,99735.16
2023-04-10T07:03:20.491Z,99731.19
2023-04-10T07:05:53.908Z,99736.88
2023-04-10T07:08:26.937Z,99750.06
2023-04-10T07:11:01.523Z,99751.25
2023-04-10T07:13:35.698Z,99748.97
2023-04-10T07:16:09.830Z,99751.38
2023-04-10T07:18:44.262Z,99747.81
2023-04-10T07:21:18.187Z,99745.75
2023-04-10T07:23:51.668Z,99762.84
2023-04-10T07:26:26.629Z,99751.75
2023-04-10T07:28:59.931Z,99757.59
2023-04-10T07:31:33.190Z,99758.41
2023-04-10T07:34:06.486Z,99752.84
2023-04-10T07:36:39.627Z,99749.25
2023-04-10T07:39:12.776Z,99747.16
2023-04-10T07:41:47.263Z,99745.59
2023-04-10T07:44:20.337Z,99739.19
2023-04-10T07:46:53.949Z,99742.94
2023-04-10T07:49:27.270Z,99737.03
2023-04-10T07:52:10.522Z,99738.31
2023-04-10T07:54:43.742Z,99733.88
2023-04-10T07:57:18.113Z,99731.78
2023-04-10T07:59:51.602Z,99733.31
2023-04-10T08:02:24.962Z,99738.03
2023-04-10T08:05:08.585Z,99735.75
2023-04-10T08:07:41.863Z,99741.59
2023-04-10T08:10:15.539Z,99740.38
2023-04-10T08:12:50.777Z,99740.00
2023-04-10T08:15:24.054Z,99745.09
2023-04-10T08:17:57.105Z,99748.38
2023-04-10T08:20:30.327Z,99743.91
2023-04-10T08:23:19.220Z,99747.91
2023-04-10T08:25:53.696Z,99735.91
2023-04-10T08:28:28.114Z,99745.59
2023-04-10T08:31:01.508Z,99754.09
2023-04-10T08:33:34.720Z,99750.56
2023-04-10T08:36:08.351Z,99747.31
2023-04-10T08:38:41.421Z,99748.63
2023-04-10T08:41:15.579Z,99745.59
2023-04-10T08:43:50.928Z,99744.50
2023-04-10T08:46:24.753Z,99743.66
2023-04-10T08:49:02.545Z,99745.25
2023-04-10T08:51:38.546Z,99738.94
2023-04-10T08:54:13.819Z,99735.53
2023-04-10T08:56:51.380Z,99728.19
2023-04-10T08:59:25.999Z,99731.44
2023-04-10T09:01:59.934Z,99725.75
2023-04-10T09:04:33.672Z,99725.75
2023-04-10T09:07:06.721Z,99719.59
2023-04-10T09:09:39.574Z,99713.19
2023-04-10T09:12:15.586Z,99718.34
2023-04-10T09:14:53.543Z,99713.31
2023-04-10T09:17:26.610Z,99715.47
2023-04-10T09:19:59.564Z,99706.53
2023-04-10T09:22:33.742Z,99713.53
2023-04-10T09:25:07.232Z,99712.69
2023-04-10T09:27:42.197Z,99715.00
2023-04-10T09:30:33.490Z,99709.19
2023-04-10T09:33:21.366Z,99699.03
2023-04-10T09:35:54.654Z,99703.13
2023-04-10T09:38:27.613Z,99705.41
2023-04-10T09:41:07.790Z,99696.97
2023-04-10T09:43:43.517Z,99696.59
2023-04-10T09:46:27.095Z,99693.44
2023-04-10T09:49:01.470Z,99687.00
2023-04-10T09:51:35.577Z,99683.28
2023-04-10T09:54:09.028Z,99679.13
2023-04-10T09:56:42.973Z,99671.16
2023-04-10T09:59:17.526Z,99672.56
2023-04-10T10:01:52.298Z,99673.31
2023-04-10T10:04:26.037Z,99678.53
2023-04-10T10:06:59.494Z,99671.03
2023-04-10T10:09:40.272Z,99667.34
2023-04-10T10:12:17.976Z,99668.69
2023-04-10T10:14:55.403Z,99669.56
2023-04-10T10:17:33.710Z,99669.63
2023-04-10T10:20:09.828Z,99671.53
2023-04-10T10:22:43.417Z,99672.47
2023-04-10T10:25:17.313Z,99669.84
2023-04-10T10:27:52.554Z,99675.56
2023-04-10T10:30:30.008Z,99668.75
2023-04-10T10:33:07.129Z,99667.75
2023-04-10T10:35:40.891Z,99664.41
2023-04-10T10:38:14.867Z,99661.31
2023-04-10T10:40:53.213Z,99656.78
2023-04-10T10:43:28.993Z,99642.75
2023-04-10T10:46:03.943Z,99645.63
2023-04-10T10:48:38.476Z,99644.25
2023-04-10T10:51:12.184Z,99636.34
2023-04-10T10:53:45.682Z,99637.38
2023-04-10T10:56:35.053Z,99638.09
2023-04-10T10:59:08.753Z,99640.13
2023-04-10T11:02:02.478Z,99632.31
2023-04-10T11:04:46.803Z,99630.50
2023-04-10T11:07:20.498Z,99628.19
2023-04-10T11:09:54.828Z,99625.06
2023-04-10T11:12:28.452Z,99624.25
2023-04-10T11:15:03.267Z,99621.00
2023-04-10T11:17:54.404Z,99619.22
2023-04-10T11:20:29.181Z,99619.34
2023-04-10T11:23:09.489Z,99618.63
2023-04-10T11:25:52.546Z,99611.22
2023-04-10T11:28:35.736Z,99611.25
2023-04-10T11:31:16.078Z,99615.63
2023-04-10T11:33:49.631Z,99607.88
2023-04-10T11:36:24.658Z,99609.69
2023-04-10T11:38:59.248Z,99609.63
2023-04-10T11:41:33.281Z,99598.06
2023-04-10T11:44:07.990Z,99599.56
2023-04-10T11:46:41.573Z,99605.03
2023-04-10T11:49:18.802Z,99592.00
2023-04-10T11:51:53.793Z,99596.72
2023-04-10T11:54:28.771Z,99601.28
2023-04-10T11:57:03.397Z,99596.34
2023-04-10T11:59:36.947Z,99593.28
2023-04-10T12:02:11.118Z,99591.22
2023-04-10T12:04:45.321Z,99592.72
2023-04-10T12:07:20.227Z,99587.00
2023-04-10T12:09:57.203Z,99580.72
2023-04-10T12:12:36.149Z,99580.56
2023-04-10T12:15:28.430Z,99585.25
2023-04-10T12:18:02.572Z,99573.84
2023-04-10T12:20:35.759Z,99570.34
2023-04-10T12:23:10.621Z,99570.81
2023-04-10T12:25:43.839Z,99558.59
2023-04-10T12:28:20.227Z,99562.09
2023-04-10T12:30:54.040Z,99553.25
2023-04-10T12:33:27.152Z,99547.91
2023-04-10T12:36:00.313Z,99555.72
2023-04-10T12:38:38.606Z,99543.41
2023-04-10T12:41:12.808Z,99551.41
2023-04-10T12:43:45.781Z,99545.81
2023-04-10T12:46:25.960Z,99539.78
2023-04-10T12:49:10.021Z,99537.38
2023-04-10T12:51:43.699Z,99537.81
2023-04-10T12:54:32.018Z,99538.94
2023-04-10T12:57:05.444Z,99535.75
2023-04-10T12:59:39.061Z,99530.81
2023-04-10T13:02:12.187Z,99531.66
2023-04-10T13:04:45.373Z,99524.69
2023-04-10T13:07:18.400Z,99524.81
2023-04-10T13:09:53.082Z,99526.66
2023-04-10T13:12:38.594Z,99525.56
2023-04-10T13:15:12.242Z,99518.78
2023-04-10T13:17:45.862Z,99519.34
2023-04-10T13:20:19.316Z,99520.78
2023-04-10T13:22:52.582Z,99520.06
2023-04-10T13:25:27.731Z,99523.72
2023-04-10T13:28:01.221Z,99518.66
2023-04-10T13:30:34.380Z,99528.78
2023-04-10T13:33:07.913Z,99523.31
2023-04-10T13:35:41.313Z,99524.56
2023-04-10T13:38:14.388Z,99535.00
2023-04-10T13:40:49.031Z,99544.84
2023-04-10T13:43:22.087Z,99545.59
2023-04-10T13:45:54.939Z,99549.56
2023-04-10T13:48:37.426Z,99543.50
2023-04-10T13:51:12.864Z,99542.59
2023-04-10T13:53:45.837Z,99547.84
2023-04-10T13:56:20.556Z,99533.28
2023-04-10T13:58:54.008Z,99532.66
2023-04-10T14:01:28.077Z,99534.53
2023-04-10T14:04:01.674Z,99529.41
2023-04-10T14:06:35.357Z,99528.81
2023-04-10T14:09:09.252Z,99521.28
2023-04-10T14:11:43.830Z,99516.84
2023-04-10T14:14:17.409Z,99517.63
2023-04-10T14:16:50.813Z,99515.47
2023-04-10T14:19:24.088Z,99511.78
2023-04-10T14:21:57.039Z,99515.81
2023-04-10T14:24:30.390Z,99513.28
2023-04-10T14:27:05.237Z,99514.34
2023-04-10T14:29:44.676Z,99510.94
2023-04-10T14:32:24.021Z,99509.84
2023-04-10T14:34:57.242Z,99514.00
2023-04-10T14:37:30.367Z,99514.78
2023-04-10T14:40:04.969Z,99510.69
2023-04-10T14:42:39.622Z,99512.38
2023-04-10T14:45:12.701Z,99512.94
2023-04-10T14:47:45.719Z,99506.97
2023-04-10T14:50:18.996Z,99505.47
2023-04-10T14:52:52.136Z,99504.75
2023-04-10T14:55:25.437Z,99506.91
2023-04-10T14:58:00.192Z,99498.84
2023-04-10T15:00:33.832Z,99496.84
2023-04-10T15:03:08.721Z,99501.72
2023-04-10T15:05:41.871Z,99502.69
2023-04-10T15:08:14.802Z,99503.00
2023-04-10T15:10:50.400Z,99501.16
2023-04-10T15:13:26.213Z,99502.94
2023-04-10T15:16:01.121Z,99505.94
2023-04-10T15:18:34.511Z,99507.63
2023-04-10T15:21:07.516Z,99503.09
2023-04-10T15:23:40.818Z,99504.28
2023-04-10T15:26:15.046Z,99504.38
2023-04-10T15:28:49.466Z,99500.47
2023-04-10T15:31:23.320Z,99501.34
2023-04-10T15:34:03.825Z,99501.88
2023-04-10T15:36:37.329Z,99506.38
2023-04-10T15:39:11.383Z,99501.59
2023-04-10T15:41:44.843Z,99507.69
2023-04-10T15:44:19.589Z,99506.19
2023-04-10T15:46:54.243Z,99501.19
2023-04-10T15:49:37.597Z,99505.28
2023-04-10T15:52:11.543Z,99494.97
2023-04-10T15:54:45.146Z,99501.88
2023-04-10T15:57:18.365Z,99511.66
2023-04-10T15:59:56.243Z,99499.81
2023-04-10T16:02:29.553Z,99508.50
2023-04-10T16:05:03.126Z,99499.59
2023-04-10T16:07:39.165Z,99493.03
2023-04-10T16:10:13.470Z,99494.06
2023-04-10T16:12:47.634Z,99499.69
2023-04-10T16:15:23.510Z,99491.09
2023-04-10T16:17:57.899Z,99492.00
2023-04-10T16:20:31.276Z,99484.34
2023-04-10T16:23:04.478Z,99486.78
2023-04-10T16:25:37.872Z,99491.75
2023-04-10T16:28:11.395Z,99495.19
2023-04-10T16:30:45.769Z,99492.53
2023-04-10T16:33:18.680Z,99492.44
2023-04-10T16:35:51.865Z,99486.25
2023-04-10T16:38:25.320Z,99486.63
2023-04-10T16:40:58.829Z,99491.47
2023-04-10T16:43:32.426Z,99493.34
2023-04-10T16:46:07.434Z,99490.69
2023-04-10T16:48:40.803Z,99490.03
2023-04-10T16:51:16.220Z,99492.69
2023-04-10T16:53:49.206Z,99496.69
2023-04-10T16:56:23.218Z,99490.09
2023-04-10T16:58:57.479Z,99494.56
2023-04-10T17:01:34.316Z,99498.00
2023-04-10T17:04:08.114Z,99495.81
2023-04-10T17:06:41.312Z,99500.44
2023-04-10T17:09:14.547Z,99486.91
2023-04-10T17:11:57.869Z,99491.41
2023-04-10T17:14:31.799Z,99495.25
2023-04-10T17:17:06.678Z,99483.16
2023-04-10T17:19:39.913Z,99483.41
2023-04-10T17:22:16.568Z,99485.25
2023-04-10T17:24:49.701Z,99481.84
2023-04-10T17:27:22.703Z,99489.72
2023-04-10T17:29:55.826Z,99482.34
2023-04-10T17:32:30.228Z,99488.03
2023-04-10T17:35:03.917Z,99492.25
2023-04-10T17:37:37.264Z,99489.25
2023-04-10T17:40:11.870Z,99492.59
2023-04-10T17:42:45.572Z,99496.72
2023-04-10T17:45:28.419Z,99496.47
2023-04-10T17:48:03.528Z,99501.06
2023-04-10T17:50:36.893Z,99502.03
2023-04-10T17:53:09.894Z,99507.88
2023-04-10T17:55:43.234Z,99512.34
2023-04-10T17:58:16.312Z,99512.34
2023-04-10T18:00:49.624Z,99518.63
2023-04-10T18:03:24.644Z,99526.59
2023-04-10T18:05:57.965Z,99515.22
2023-04-10T18:08:31.183Z,99510.50
2023-04-10T18:11:04.233Z,99514.88
2023-04-10T18:13:37.515Z,99519.69
2023-04-10T18:16:11.996Z,99513.41
2023-04-10T18:18:46.653Z,99519.34
2023-04-10T18:21:19.780Z,99523.22
2023-04-10T18:23:52.992Z,99520.06
2023-04-10T18:26:26.188Z,99514.28
2023-04-10T18:28:59.893Z,99509.28
2023-04-10T18:31:33.514Z,99505.81
2023-04-10T18:34:08.925Z,99510.50
2023-04-10T18:36:42.348Z,99504.59
2023-04-10T18:39:15.483Z,99504.84
2023-04-10T18:41:48.532Z,99506.63
2023-04-10T18:44:21.799Z,99501.56
2023-04-10T18:47:03.809Z,99504.94
2023-04-10T18:49:39.559Z,99502.41
2023-04-10T18:52:12.975Z,99498.91
2023-04-10T18:54:46.744Z,99499.28
2023-04-10T18:57:20.065Z,99490.69
2023-04-10T18:59:53.551Z,99485.50
2023-04-10T19:02:28.684Z,99477.19
2023-04-10T19:05:03.614Z,99471.25
2023-04-10T19:07:36.631Z,99470.16
2023-04-10T19:10:10.051Z,99461.25
2023-04-10T19:12:44.061Z,99458.72
2023-04-10T19:15:18.019Z,99461.94
2023-04-10T19:17:53.301Z,99461.50
2023-04-10T19:20:50.232Z,99455.69
2023-04-10T19:23:22.483Z,99455.31
2023-04-10T19:25:55.882Z,99460.25
2023-04-10T19:28:30.189Z,99458.97
2023-04-10T19:31:03.378Z,99451.81
2023-04-10T19:33:36.748Z,99447.72
2023-04-10T19:36:11.734Z,99450.97
2023-04-10T19:38:48.952Z,99450.59
2023-04-10T19:41:22.263Z,99458.09
2023-04-10T19:43:56.187Z,99445.78
2023-04-10T19:46:30.088Z,99448.56
2023-04-10T19:49:03.613Z,99453.28
2023-04-10T19:51:38.276Z,99449.88
2023-04-10T19:54:11.561Z,99446.25
2023-04-10T19:56:44.805Z,99444.94
2023-04-10T19:59:18.015Z,99439.84
2023-04-10T20:01:52.145Z,99442.88
2023-04-10T20:04:25.698Z,99431.16
2023-04-10T20:07:00.524Z,99427.31
2023-04-10T20:09:34.211Z,99439.84
2023-04-10T20:12:08.584Z,99437.69
2023-04-10T20:14:43.403Z,99438.06
2023-04-10T20:17:17.064Z,99439.97
2023-04-10T20:19:50.149Z,99446.97
2023-04-10T20:22:24.595Z,99445.16
2023-04-10T20:24:57.637Z,99439.72
2023-04-10T20:27:30.737Z,99435.63
2023-04-10T20:30:04.256Z,99437.19
2023-04-10T20:32:39.810Z,99436.94
2023-04-10T20:35:12.921Z,99435.28
2023-04-10T20:37:47.153Z,99427.06
2023-04-10T20:40:20.393Z,99426.44
2023-04-10T20:42:54.065Z,99423.19
2023-04-10T20:45:27.473Z,99431.75
2023-04-10T20:48:00.912Z,99433.22
2023-04-10T20:50:33.876Z,99429.84
2023-04-10T20:53:08.249Z,99432.00
2023-04-10T20:55:41.624Z,99429.47
2023-04-10T20:58:15.105Z,99424.41
2023-04-10T21:00:48.639Z,99420.03
2023-04-10T21:03:22.009Z,99416.94
2023-04-10T21:05:55.371Z,99419.84
2023-04-10T21:08:30.169Z,99399.28
2023-04-10T21:11:03.276Z,99398.34
2023-04-10T21:13:38.535Z,99399.53
2023-04-10T21:18:45.472Z,99396.16
2023-04-10T21:21:18.519Z,99402.19
2023-04-10T21:23:52.858Z,99393.72
2023-04-10T21:26:25.874Z,99396.25
2023-04-10T21:28:59.165Z,99392.03
2023-04-10T21:31:32.406Z,99377.91
2023-04-10T21:34:05.852Z,99390.47
2023-04-10T21:36:39.514Z,99384.81
2023-04-10T21:39:13.883Z,99393.25
2023-04-10T21:41:47.149Z,99392.78
2023-04-10T21:44:21.132Z,99396.16
2023-04-10T21:46:54.394Z,99395.69
2023-04-10T21:49:27.406Z,99403.28
2023-04-10T21:52:00.731Z,99386.38
2023-04-10T21:54:35.481Z,99382.66
2023-04-10T21:57:08.850Z,99384.44
2023-04-10T21:59:42.052Z,99377.31
2023-04-10T22:02:15.022Z,99376.72
2023-04-10T22:04:54.468Z,99379.00
2023-04-10T22:07:27.856Z,99374.31
2023-04-10T22:10:02.523Z,99377.78
2023-04-10T22:12:36.634Z,99373.94
2023-04-10T22:15:10.799Z,99375.63
2023-04-10T22:17:44.405Z,99377.78
2023-04-10T22:20:17.450Z,99378.78
2023-04-10T22:22:50.736Z,99366.09
2023-04-10T22:25:25.609Z,99370.19
2023-04-10T22:27:58.875Z,99359.94
2023-04-10T22:30:31.793Z,99360.78
2023-04-10T22:33:04.943Z,99360.19
2023-04-10T22:35:38.171Z,99346.53
2023-04-10T22:38:11.260Z,99340.63
2023-04-10T22:40:45.842Z,99332.44
2023-04-10T22:43:19.297Z,99332.19
2023-04-10T22:45:52.625Z,99332.56
2023-04-10T22:48:25.744Z,99327.38
2023-04-10T22:50:58.598Z,99330.13
2023-04-10T22:53:31.830Z,99320.09
2023-04-10T22:56:06.854Z,99316.38
2023-04-10T22:58:40.530Z,99318.19
2023-04-10T23:01:13.510Z,99320.94
2023-04-10T23:03:46.416Z,99313.97
2023-04-10T23:06:19.616Z,99318.19
2023-04-10T23:08:52.973Z,99311.91
2023-04-10T23:11:27.703Z,99305.25
2023-04-10T23:14:01.468Z,99306.97
2023-04-10T23:16:34.878Z,99297.53
2023-04-10T23:19:08.106Z,99287.28
2023-04-10T23:21:41.012Z,99282.09
2023-04-10T23:24:14.169Z,99289.06
2023-04-10T23:26:48.814Z,99289.19
2023-04-10T23:29:22.003Z,99289.69
2023-04-10T23:31:54.880Z,99281.72
2023-04-10T23:34:27.901Z,99284.13
2023-04-10T23:37:01.181Z,99273.41
2023-04-10T23:39:34.200Z,99283.69
2023-04-10T23:42:08.558Z,99280.78
2023-04-10T23:44:41.764Z,99277.25
2023-04-10T23:47:14.824Z,99279.56
2023-04-10T23:49:47.933Z,99280.53
2023-04-10T23:52:20.952Z,99272.81
2023-04-10T23:54:56.283Z,99266.88
2023-04-10T23:57:30.823Z,99270.16
